sensor_id;sensor_type;location;lat;lon;timestamp;temperature;humidity
25092;DHT22;13082;52.374;4.946;2023-06-22T00:00:43;20.80;99.90
25092;DHT22;13082;52.374;4.946;2023-06-22T00:03:10;20.80;99.90
25092;DHT22;13082;52.374;4.946;2023-06-22T00:05:35;20.80;99.90
25092;DHT22;13082;52.374;4.946;2023-06-22T00:08:03;20.90;99.90
25092;DHT22;13082;52.374;4.946;2023-06-22T00:10:30;20.80;99.90
25092;DHT22;13082;52.374;4.946;2023-06-22T00:12:55;20.80;99.90
25092;DHT22;13082;52.374;4.946;2023-06-22T00:15:21;20.80;99.90
25092;DHT22;13082;52.374;4.946;2023-06-22T00:17:47;20.80;99.90
25092;DHT22;13082;52.374;4.946;2023-06-22T00:20:12;20.90;99.90
25092;DHT22;13082;52.374;4.946;2023-06-22T00:22:40;20.80;99.90
25092;DHT22;13082;52.374;4.946;2023-06-22T00:25:06;20.80;99.90
25092;DHT22;13082;52.374;4.946;2023-06-22T00:27:32;20.80;99.90
25092;DHT22;13082;52.374;4.946;2023-06-22T00:29:58;20.80;99.90
25092;DHT22;13082;52.374;4.946;2023-06-22T00:32:24;20.80;99.90
25092;DHT22;13082;52.374;4.946;2023-06-22T00:34:49;20.90;99.90
25092;DHT22;13082;52.374;4.946;2023-06-22T00:37:16;21.00;99.90
25092;DHT22;13082;52.374;4.946;2023-06-22T00:39:43;20.90;99.90
25092;DHT22;13082;52.374;4.946;2023-06-22T00:42:08;20.90;99.90
25092;DHT22;13082;52.374;4.946;2023-06-22T00:44:35;20.90;99.90
25092;DHT22;13082;52.374;4.946;2023-06-22T00:47:02;20.90;99.90
25092;DHT22;13082;52.374;4.946;2023-06-22T00:49:28;20.90;99.90
25092;DHT22;13082;52.374;4.946;2023-06-22T00:51:54;20.80;99.90
25092;DHT22;13082;52.374;4.946;2023-06-22T00:54:21;20.80;99.90
25092;DHT22;13082;52.374;4.946;2023-06-22T00:56:53;20.80;99.90
25092;DHT22;13082;52.374;4.946;2023-06-22T00:59:20;20.90;99.90
25092;DHT22;13082;52.374;4.946;2023-06-22T01:01:46;20.90;99.90
25092;DHT22;13082;52.374;4.946;2023-06-22T01:04:12;20.80;99.90
25092;DHT22;13082;52.374;4.946;2023-06-22T01:07:00;20.80;99.90
25092;DHT22;13082;52.374;4.946;2023-06-22T01:09:33;20.80;99.90
25092;DHT22;13082;52.374;4.946;2023-06-22T01:12:04;20.80;99.90
25092;DHT22;13082;52.374;4.946;2023-06-22T01:14:41;20.80;99.90
25092;DHT22;13082;52.374;4.946;2023-06-22T01:17:09;20.80;99.90
25092;DHT22;13082;52.374;4.946;2023-06-22T01:19:49;20.70;99.90
25092;DHT22;13082;52.374;4.946;2023-06-22T01:22:23;20.70;99.90
25092;DHT22;13082;52.374;4.946;2023-06-22T01:25:13;20.70;99.90
25092;DHT22;13082;52.374;4.946;2023-06-22T01:28:43;20.70;99.90
25092;DHT22;13082;52.374;4.946;2023-06-22T01:30:43;20.60;99.90
25092;DHT22;13082;52.374;4.946;2023-06-22T01:33:11;20.70;99.90
25092;DHT22;13082;52.374;4.946;2023-06-22T01:35:38;20.70;99.90
25092;DHT22;13082;52.374;4.946;2023-06-22T01:38:04;20.70;99.90
25092;DHT22;13082;52.374;4.946;2023-06-22T01:40:32;20.70;99.90
25092;DHT22;13082;52.374;4.946;2023-06-22T01:43:03;20.60;99.90
25092;DHT22;13082;52.374;4.946;2023-06-22T01:45:29;20.50;99.90
25092;DHT22;13082;52.374;4.946;2023-06-22T01:47:55;20.50;99.90
25092;DHT22;13082;52.374;4.946;2023-06-22T01:50:21;20.50;99.90
25092;DHT22;13082;52.374;4.946;2023-06-22T01:52:47;20.50;99.90
25092;DHT22;13082;52.374;4.946;2023-06-22T01:55:12;20.60;99.90
25092;DHT22;13082;52.374;4.946;2023-06-22T01:57:39;20.60;99.90
25092;DHT22;13082;52.374;4.946;2023-06-22T02:00:11;20.60;99.90
25092;DHT22;13082;52.374;4.946;2023-06-22T02:02:52;20.60;99.90
25092;DHT22;13082;52.374;4.946;2023-06-22T02:05:19;20.60;99.90
25092;DHT22;13082;52.374;4.946;2023-06-22T02:08:13;20.70;99.90
25092;DHT22;13082;52.374;4.946;2023-06-22T02:10:42;20.70;99.90
25092;DHT22;13082;52.374;4.946;2023-06-22T02:13:09;20.70;99.90
25092;DHT22;13082;52.374;4.946;2023-06-22T02:15:36;20.70;99.90
25092;DHT22;13082;52.374;4.946;2023-06-22T02:18:02;20.80;99.90
25092;DHT22;13082;52.374;4.946;2023-06-22T02:20:28;20.80;99.90
25092;DHT22;13082;52.374;4.946;2023-06-22T02:22:53;20.90;99.90
25092;DHT22;13082;52.374;4.946;2023-06-22T02:25:19;20.90;99.90
25092;DHT22;13082;52.374;4.946;2023-06-22T02:27:45;21.00;99.90
25092;DHT22;13082;52.374;4.946;2023-06-22T02:30:11;21.00;99.90
25092;DHT22;13082;52.374;4.946;2023-06-22T02:32:37;20.90;99.90
25092;DHT22;13082;52.374;4.946;2023-06-22T02:35:10;20.90;99.90
25092;DHT22;13082;52.374;4.946;2023-06-22T02:37:37;21.00;99.90
25092;DHT22;13082;52.374;4.946;2023-06-22T02:40:08;21.00;99.90
25092;DHT22;13082;52.374;4.946;2023-06-22T02:42:35;21.10;99.90
25092;DHT22;13082;52.374;4.946;2023-06-22T02:45:00;21.10;99.90
25092;DHT22;13082;52.374;4.946;2023-06-22T02:47:26;21.00;99.90
25092;DHT22;13082;52.374;4.946;2023-06-22T02:49:52;21.00;99.90
25092;DHT22;13082;52.374;4.946;2023-06-22T02:52:18;21.00;99.90
25092;DHT22;13082;52.374;4.946;2023-06-22T02:54:43;21.10;99.90
25092;DHT22;13082;52.374;4.946;2023-06-22T02:57:11;21.10;99.90
25092;DHT22;13082;52.374;4.946;2023-06-22T02:59:39;21.10;99.90
25092;DHT22;13082;52.374;4.946;2023-06-22T03:02:07;21.10;99.90
25092;DHT22;13082;52.374;4.946;2023-06-22T03:04:34;21.00;99.90
25092;DHT22;13082;52.374;4.946;2023-06-22T03:07:00;21.00;99.90
25092;DHT22;13082;52.374;4.946;2023-06-22T03:09:27;20.90;99.90
25092;DHT22;13082;52.374;4.946;2023-06-22T03:11:54;20.90;99.90
25092;DHT22;13082;52.374;4.946;2023-06-22T03:14:19;20.80;99.90
25092;DHT22;13082;52.374;4.946;2023-06-22T03:16:45;20.70;99.90
25092;DHT22;13082;52.374;4.946;2023-06-22T03:19:11;20.70;99.90
25092;DHT22;13082;52.374;4.946;2023-06-22T03:21:38;20.70;99.90
25092;DHT22;13082;52.374;4.946;2023-06-22T03:24:04;20.70;99.90
25092;DHT22;13082;52.374;4.946;2023-06-22T03:26:30;20.70;99.90
25092;DHT22;13082;52.374;4.946;2023-06-22T03:28:56;20.70;99.90
25092;DHT22;13082;52.374;4.946;2023-06-22T03:31:22;20.60;99.90
25092;DHT22;13082;52.374;4.946;2023-06-22T03:33:48;20.70;99.90
25092;DHT22;13082;52.374;4.946;2023-06-22T03:36:15;20.60;99.90
25092;DHT22;13082;52.374;4.946;2023-06-22T03:38:48;20.70;99.90
25092;DHT22;13082;52.374;4.946;2023-06-22T03:41:14;20.60;99.90
25092;DHT22;13082;52.374;4.946;2023-06-22T03:43:40;20.70;99.90
25092;DHT22;13082;52.374;4.946;2023-06-22T03:46:06;20.80;99.90
25092;DHT22;13082;52.374;4.946;2023-06-22T03:48:32;20.80;99.90
25092;DHT22;13082;52.374;4.946;2023-06-22T03:50:59;20.80;99.90
25092;DHT22;13082;52.374;4.946;2023-06-22T03:53:25;20.80;99.90
25092;DHT22;13082;52.374;4.946;2023-06-22T03:55:52;20.80;99.90
25092;DHT22;13082;52.374;4.946;2023-06-22T03:58:18;20.70;99.90
25092;DHT22;13082;52.374;4.946;2023-06-22T04:00:51;20.70;99.90
25092;DHT22;13082;52.374;4.946;2023-06-22T04:03:19;20.60;99.90
25092;DHT22;13082;52.374;4.946;2023-06-22T04:05:45;20.50;99.90
25092;DHT22;13082;52.374;4.946;2023-06-22T04:08:13;20.60;99.90
25092;DHT22;13082;52.374;4.946;2023-06-22T04:10:39;20.60;99.90
25092;DHT22;13082;52.374;4.946;2023-06-22T04:13:04;20.50;99.90
25092;DHT22;13082;52.374;4.946;2023-06-22T04:15:30;20.50;99.90
25092;DHT22;13082;52.374;4.946;2023-06-22T04:17:56;20.50;99.90
25092;DHT22;13082;52.374;4.946;2023-06-22T04:20:22;20.50;99.90
25092;DHT22;13082;52.374;4.946;2023-06-22T04:22:52;20.50;99.90
25092;DHT22;13082;52.374;4.946;2023-06-22T04:25:17;20.60;99.90
25092;DHT22;13082;52.374;4.946;2023-06-22T04:27:43;20.60;99.90
25092;DHT22;13082;52.374;4.946;2023-06-22T04:30:09;20.60;99.90
25092;DHT22;13082;52.374;4.946;2023-06-22T04:32:35;20.70;99.90
25092;DHT22;13082;52.374;4.946;2023-06-22T04:35:05;20.70;99.90
25092;DHT22;13082;52.374;4.946;2023-06-22T04:37:32;20.80;99.90
25092;DHT22;13082;52.374;4.946;2023-06-22T04:39:57;20.80;99.90
25092;DHT22;13082;52.374;4.946;2023-06-22T04:42:25;20.90;99.90
25092;DHT22;13082;52.374;4.946;2023-06-22T04:44:51;21.00;99.90
25092;DHT22;13082;52.374;4.946;2023-06-22T04:47:16;21.00;99.90
25092;DHT22;13082;52.374;4.946;2023-06-22T04:49:42;21.00;99.90
25092;DHT22;13082;52.374;4.946;2023-06-22T04:52:10;21.00;99.90
25092;DHT22;13082;52.374;4.946;2023-06-22T04:54:38;21.10;99.90
25092;DHT22;13082;52.374;4.946;2023-06-22T04:57:05;21.10;99.90
25092;DHT22;13082;52.374;4.946;2023-06-22T04:59:35;21.10;99.90
25092;DHT22;13082;52.374;4.946;2023-06-22T05:02:02;21.10;99.90
25092;DHT22;13082;52.374;4.946;2023-06-22T05:04:29;21.10;99.90
25092;DHT22;13082;52.374;4.946;2023-06-22T05:06:59;21.10;99.90
25092;DHT22;13082;52.374;4.946;2023-06-22T05:09:25;21.10;99.90
25092;DHT22;13082;52.374;4.946;2023-06-22T05:11:51;21.10;99.90
25092;DHT22;13082;52.374;4.946;2023-06-22T05:14:18;21.10;99.90
25092;DHT22;13082;52.374;4.946;2023-06-22T05:16:44;21.10;99.90
25092;DHT22;13082;52.374;4.946;2023-06-22T05:19:11;21.10;99.90
25092;DHT22;13082;52.374;4.946;2023-06-22T05:21:38;21.00;99.90
25092;DHT22;13082;52.374;4.946;2023-06-22T05:24:04;20.90;99.90
25092;DHT22;13082;52.374;4.946;2023-06-22T05:26:33;20.70;99.90
25092;DHT22;13082;52.374;4.946;2023-06-22T05:29:01;20.70;99.90
25092;DHT22;13082;52.374;4.946;2023-06-22T05:31:29;20.60;99.90
25092;DHT22;13082;52.374;4.946;2023-06-22T05:33:55;20.60;99.90
25092;DHT22;13082;52.374;4.946;2023-06-22T05:36:21;20.50;99.90
25092;DHT22;13082;52.374;4.946;2023-06-22T05:38:51;20.50;99.90
25092;DHT22;13082;52.374;4.946;2023-06-22T05:41:17;20.50;99.90
25092;DHT22;13082;52.374;4.946;2023-06-22T05:43:42;20.50;99.90
25092;DHT22;13082;52.374;4.946;2023-06-22T05:46:08;20.50;99.90
25092;DHT22;13082;52.374;4.946;2023-06-22T05:48:33;20.50;99.90
25092;DHT22;13082;52.374;4.946;2023-06-22T05:50:59;20.50;99.90
25092;DHT22;13082;52.374;4.946;2023-06-22T05:53:25;20.70;99.90
25092;DHT22;13082;52.374;4.946;2023-06-22T05:55:51;20.70;99.90
25092;DHT22;13082;52.374;4.946;2023-06-22T05:58:16;20.70;99.90
25092;DHT22;13082;52.374;4.946;2023-06-22T06:00:42;20.70;99.90
25092;DHT22;13082;52.374;4.946;2023-06-22T06:03:09;20.80;99.90
25092;DHT22;13082;52.374;4.946;2023-06-22T06:05:35;20.80;99.90
25092;DHT22;13082;52.374;4.946;2023-06-22T06:08:03;20.80;99.90
25092;DHT22;13082;52.374;4.946;2023-06-22T06:10:30;20.70;99.90
25092;DHT22;13082;52.374;4.946;2023-06-22T06:12:56;20.70;99.90
25092;DHT22;13082;52.374;4.946;2023-06-22T06:15:22;20.70;99.90
25092;DHT22;13082;52.374;4.946;2023-06-22T06:17:49;20.70;99.90
25092;DHT22;13082;52.374;4.946;2023-06-22T06:20:17;20.60;99.90
25092;DHT22;13082;52.374;4.946;2023-06-22T06:22:43;20.60;99.90
25092;DHT22;13082;52.374;4.946;2023-06-22T06:25:09;20.50;99.90
25092;DHT22;13082;52.374;4.946;2023-06-22T06:27:35;20.50;99.90
25092;DHT22;13082;52.374;4.946;2023-06-22T06:30:00;20.50;99.90
25092;DHT22;13082;52.374;4.946;2023-06-22T06:32:26;20.50;99.90
25092;DHT22;13082;52.374;4.946;2023-06-22T06:34:51;20.50;99.90
25092;DHT22;13082;52.374;4.946;2023-06-22T06:37:17;20.50;99.90
25092;DHT22;13082;52.374;4.946;2023-06-22T06:39:44;20.60;99.90
25092;DHT22;13082;52.374;4.946;2023-06-22T06:42:09;20.70;99.90
25092;DHT22;13082;52.374;4.946;2023-06-22T06:44:36;20.70;99.90
25092;DHT22;13082;52.374;4.946;2023-06-22T06:47:03;20.70;99.90
25092;DHT22;13082;52.374;4.946;2023-06-22T06:49:29;20.70;99.90
25092;DHT22;13082;52.374;4.946;2023-06-22T06:51:55;20.80;99.90
25092;DHT22;13082;52.374;4.946;2023-06-22T06:54:21;20.90;99.90
25092;DHT22;13082;52.374;4.946;2023-06-22T06:56:47;20.80;99.90
25092;DHT22;13082;52.374;4.946;2023-06-22T06:59:14;20.80;99.90
25092;DHT22;13082;52.374;4.946;2023-06-22T07:01:41;20.90;99.90
25092;DHT22;13082;52.374;4.946;2023-06-22T07:04:07;20.90;99.90
25092;DHT22;13082;52.374;4.946;2023-06-22T07:06:32;21.00;99.90
25092;DHT22;13082;52.374;4.946;2023-06-22T07:08:59;21.00;99.90
25092;DHT22;13082;52.374;4.946;2023-06-22T07:11:25;21.10;99.90
25092;DHT22;13082;52.374;4.946;2023-06-22T07:13:51;21.10;99.90
25092;DHT22;13082;52.374;4.946;2023-06-22T07:16:16;21.20;99.90
25092;DHT22;13082;52.374;4.946;2023-06-22T07:18:42;21.20;99.90
25092;DHT22;13082;52.374;4.946;2023-06-22T07:21:08;21.30;99.90
25092;DHT22;13082;52.374;4.946;2023-06-22T07:23:35;21.40;99.90
25092;DHT22;13082;52.374;4.946;2023-06-22T07:26:00;21.40;99.90
25092;DHT22;13082;52.374;4.946;2023-06-22T07:28:31;21.50;99.90
25092;DHT22;13082;52.374;4.946;2023-06-22T07:31:02;21.60;99.90
25092;DHT22;13082;52.374;4.946;2023-06-22T07:33:28;21.70;99.90
25092;DHT22;13082;52.374;4.946;2023-06-22T07:35:54;21.70;99.90
25092;DHT22;13082;52.374;4.946;2023-06-22T07:38:19;21.70;99.90
25092;DHT22;13082;52.374;4.946;2023-06-22T07:40:45;21.70;99.90
25092;DHT22;13082;52.374;4.946;2023-06-22T07:43:11;21.80;99.90
25092;DHT22;13082;52.374;4.946;2023-06-22T07:45:38;21.80;99.90
25092;DHT22;13082;52.374;4.946;2023-06-22T07:48:05;21.80;99.90
25092;DHT22;13082;52.374;4.946;2023-06-22T07:50:31;21.90;99.90
25092;DHT22;13082;52.374;4.946;2023-06-22T07:53:04;22.00;99.90
25092;DHT22;13082;52.374;4.946;2023-06-22T07:55:30;22.00;99.90
25092;DHT22;13082;52.374;4.946;2023-06-22T07:57:56;22.10;99.90
25092;DHT22;13082;52.374;4.946;2023-06-22T08:00:21;22.20;99.90
25092;DHT22;13082;52.374;4.946;2023-06-22T08:02:47;22.20;99.90
25092;DHT22;13082;52.374;4.946;2023-06-22T08:05:14;22.30;99.90
25092;DHT22;13082;52.374;4.946;2023-06-22T08:07:40;22.40;99.90
25092;DHT22;13082;52.374;4.946;2023-06-22T08:10:10;22.50;99.90
25092;DHT22;13082;52.374;4.946;2023-06-22T08:12:37;22.50;99.90
25092;DHT22;13082;52.374;4.946;2023-06-22T08:15:03;22.60;99.90
25092;DHT22;13082;52.374;4.946;2023-06-22T08:17:29;22.60;99.90
25092;DHT22;13082;52.374;4.946;2023-06-22T08:19:57;22.60;99.90
25092;DHT22;13082;52.374;4.946;2023-06-22T08:22:23;22.70;99.90
25092;DHT22;13082;52.374;4.946;2023-06-22T08:24:48;22.80;99.90
25092;DHT22;13082;52.374;4.946;2023-06-22T08:27:14;22.80;99.90
25092;DHT22;13082;52.374;4.946;2023-06-22T08:29:46;22.80;99.90
25092;DHT22;13082;52.374;4.946;2023-06-22T08:32:13;22.90;99.90
25092;DHT22;13082;52.374;4.946;2023-06-22T08:34:39;22.90;99.90
25092;DHT22;13082;52.374;4.946;2023-06-22T08:37:10;22.90;99.90
25092;DHT22;13082;52.374;4.946;2023-06-22T08:39:36;22.80;99.90
25092;DHT22;13082;52.374;4.946;2023-06-22T08:42:03;22.80;99.90
25092;DHT22;13082;52.374;4.946;2023-06-22T08:44:29;22.90;99.90
25092;DHT22;13082;52.374;4.946;2023-06-22T08:46:55;23.00;99.90
25092;DHT22;13082;52.374;4.946;2023-06-22T08:49:20;23.00;99.90
25092;DHT22;13082;52.374;4.946;2023-06-22T08:51:46;23.00;99.90
25092;DHT22;13082;52.374;4.946;2023-06-22T08:54:14;23.10;99.90
25092;DHT22;13082;52.374;4.946;2023-06-22T08:56:41;23.10;99.90
25092;DHT22;13082;52.374;4.946;2023-06-22T08:59:09;23.20;99.90
25092;DHT22;13082;52.374;4.946;2023-06-22T09:01:35;23.10;99.90
25092;DHT22;13082;52.374;4.946;2023-06-22T09:04:00;23.20;99.90
25092;DHT22;13082;52.374;4.946;2023-06-22T09:06:26;23.20;99.90
25092;DHT22;13082;52.374;4.946;2023-06-22T09:08:55;23.40;99.90
25092;DHT22;13082;52.374;4.946;2023-06-22T09:11:20;23.40;99.90
25092;DHT22;13082;52.374;4.946;2023-06-22T09:13:47;23.50;99.90
25092;DHT22;13082;52.374;4.946;2023-06-22T09:16:12;23.60;99.90
25092;DHT22;13082;52.374;4.946;2023-06-22T09:18:38;23.70;99.90
25092;DHT22;13082;52.374;4.946;2023-06-22T09:21:04;23.60;99.90
25092;DHT22;13082;52.374;4.946;2023-06-22T09:23:30;23.60;99.90
25092;DHT22;13082;52.374;4.946;2023-06-22T09:25:55;23.70;99.90
25092;DHT22;13082;52.374;4.946;2023-06-22T09:28:21;23.80;99.90
25092;DHT22;13082;52.374;4.946;2023-06-22T09:30:47;23.80;99.90
25092;DHT22;13082;52.374;4.946;2023-06-22T09:33:19;23.90;99.90
25092;DHT22;13082;52.374;4.946;2023-06-22T09:35:45;23.90;99.90
25092;DHT22;13082;52.374;4.946;2023-06-22T09:38:10;23.90;99.90
25092;DHT22;13082;52.374;4.946;2023-06-22T09:40:36;23.90;99.90
25092;DHT22;13082;52.374;4.946;2023-06-22T09:43:05;24.00;99.90
25092;DHT22;13082;52.374;4.946;2023-06-22T09:45:31;24.00;99.90
25092;DHT22;13082;52.374;4.946;2023-06-22T09:47:56;23.90;99.90
25092;DHT22;13082;52.374;4.946;2023-06-22T09:50:22;23.90;99.90
25092;DHT22;13082;52.374;4.946;2023-06-22T09:52:47;23.80;99.90
25092;DHT22;13082;52.374;4.946;2023-06-22T09:55:22;23.90;99.90
25092;DHT22;13082;52.374;4.946;2023-06-22T09:57:48;24.00;99.90
25092;DHT22;13082;52.374;4.946;2023-06-22T10:00:16;24.00;99.90
25092;DHT22;13082;52.374;4.946;2023-06-22T10:02:42;23.90;99.90
25092;DHT22;13082;52.374;4.946;2023-06-22T10:05:08;24.00;99.90
25092;DHT22;13082;52.374;4.946;2023-06-22T10:07:34;24.00;99.90
25092;DHT22;13082;52.374;4.946;2023-06-22T10:09:59;24.10;99.90
25092;DHT22;13082;52.374;4.946;2023-06-22T10:12:28;24.10;99.90
25092;DHT22;13082;52.374;4.946;2023-06-22T10:14:53;24.10;99.90
25092;DHT22;13082;52.374;4.946;2023-06-22T10:17:19;24.10;99.90
25092;DHT22;13082;52.374;4.946;2023-06-22T10:19:45;24.10;99.90
25092;DHT22;13082;52.374;4.946;2023-06-22T10:22:10;23.90;99.90
25092;DHT22;13082;52.374;4.946;2023-06-22T10:24:36;23.90;99.90
25092;DHT22;13082;52.374;4.946;2023-06-22T10:27:04;23.90;99.90
25092;DHT22;13082;52.374;4.946;2023-06-22T10:29:29;23.80;99.90
25092;DHT22;13082;52.374;4.946;2023-06-22T10:31:55;23.80;99.90
25092;DHT22;13082;52.374;4.946;2023-06-22T10:34:20;23.70;99.90
25092;DHT22;13082;52.374;4.946;2023-06-22T10:36:52;23.70;99.90
25092;DHT22;13082;52.374;4.946;2023-06-22T10:39:18;23.60;99.90
25092;DHT22;13082;52.374;4.946;2023-06-22T10:41:44;23.60;99.90
25092;DHT22;13082;52.374;4.946;2023-06-22T10:44:11;23.70;99.90
25092;DHT22;13082;52.374;4.946;2023-06-22T10:46:37;23.70;99.90
25092;DHT22;13082;52.374;4.946;2023-06-22T10:49:03;23.60;99.90
25092;DHT22;13082;52.374;4.946;2023-06-22T10:51:29;23.60;99.90
25092;DHT22;13082;52.374;4.946;2023-06-22T10:53:56;23.50;99.90
25092;DHT22;13082;52.374;4.946;2023-06-22T10:56:22;23.50;99.90
25092;DHT22;13082;52.374;4.946;2023-06-22T10:58:47;23.50;99.90
25092;DHT22;13082;52.374;4.946;2023-06-22T11:01:13;23.50;99.90
25092;DHT22;13082;52.374;4.946;2023-06-22T11:03:39;23.50;99.90
25092;DHT22;13082;52.374;4.946;2023-06-22T11:06:05;23.50;99.90
25092;DHT22;13082;52.374;4.946;2023-06-22T11:08:30;23.40;99.90
25092;DHT22;13082;52.374;4.946;2023-06-22T11:10:56;23.40;99.90
25092;DHT22;13082;52.374;4.946;2023-06-22T11:13:22;23.30;99.90
25092;DHT22;13082;52.374;4.946;2023-06-22T11:15:47;23.30;99.90
25092;DHT22;13082;52.374;4.946;2023-06-22T11:18:13;23.20;99.90
25092;DHT22;13082;52.374;4.946;2023-06-22T11:20:39;23.20;99.90
25092;DHT22;13082;52.374;4.946;2023-06-22T11:23:06;23.30;99.90
25092;DHT22;13082;52.374;4.946;2023-06-22T11:25:32;23.20;99.90
25092;DHT22;13082;52.374;4.946;2023-06-22T11:28:01;23.20;99.90
25092;DHT22;13082;52.374;4.946;2023-06-22T11:30:27;23.20;99.90
25092;DHT22;13082;52.374;4.946;2023-06-22T11:32:53;23.30;99.90
25092;DHT22;13082;52.374;4.946;2023-06-22T11:35:18;23.20;99.90
25092;DHT22;13082;52.374;4.946;2023-06-22T11:37:44;23.10;99.90
25092;DHT22;13082;52.374;4.946;2023-06-22T11:40:10;23.20;99.90
25092;DHT22;13082;52.374;4.946;2023-06-22T11:42:36;23.20;99.90
25092;DHT22;13082;52.374;4.946;2023-06-22T11:45:02;23.20;99.90
25092;DHT22;13082;52.374;4.946;2023-06-22T11:47:30;23.20;99.90
25092;DHT22;13082;52.374;4.946;2023-06-22T11:49:55;23.10;99.90
25092;DHT22;13082;52.374;4.946;2023-06-22T11:52:21;23.10;99.90
25092;DHT22;13082;52.374;4.946;2023-06-22T11:54:47;23.10;99.90
25092;DHT22;13082;52.374;4.946;2023-06-22T11:57:12;23.10;99.90
25092;DHT22;13082;52.374;4.946;2023-06-22T11:59:38;23.20;99.90
25092;DHT22;13082;52.374;4.946;2023-06-22T12:02:03;23.30;99.90
25092;DHT22;13082;52.374;4.946;2023-06-22T12:04:30;23.30;99.90
25092;DHT22;13082;52.374;4.946;2023-06-22T12:06:56;23.40;99.90
25092;DHT22;13082;52.374;4.946;2023-06-22T12:09:23;23.40;99.90
25092;DHT22;13082;52.374;4.946;2023-06-22T12:11:49;23.40;99.90
25092;DHT22;13082;52.374;4.946;2023-06-22T12:14:14;23.40;99.90
25092;DHT22;13082;52.374;4.946;2023-06-22T12:16:40;23.50;99.90
25092;DHT22;13082;52.374;4.946;2023-06-22T12:19:09;23.50;99.90
25092;DHT22;13082;52.374;4.946;2023-06-22T12:21:34;23.50;99.90
25092;DHT22;13082;52.374;4.946;2023-06-22T12:24:00;23.50;99.90
25092;DHT22;13082;52.374;4.946;2023-06-22T12:26:25;23.50;99.90
25092;DHT22;13082;52.374;4.946;2023-06-22T12:28:51;23.40;99.90
25092;DHT22;13082;52.374;4.946;2023-06-22T12:31:17;23.50;99.90
25092;DHT22;13082;52.374;4.946;2023-06-22T12:33:43;23.60;99.90
25092;DHT22;13082;52.374;4.946;2023-06-22T12:36:08;23.60;99.90
25092;DHT22;13082;52.374;4.946;2023-06-22T12:38:34;23.60;99.90
25092;DHT22;13082;52.374;4.946;2023-06-22T12:41:00;23.60;99.90
25092;DHT22;13082;52.374;4.946;2023-06-22T12:43:25;23.50;99.90
25092;DHT22;13082;52.374;4.946;2023-06-22T12:45:51;23.50;99.90
25092;DHT22;13082;52.374;4.946;2023-06-22T12:48:17;23.50;99.90
25092;DHT22;13082;52.374;4.946;2023-06-22T12:50:42;23.60;99.90
25092;DHT22;13082;52.374;4.946;2023-06-22T12:53:08;23.60;99.90
25092;DHT22;13082;52.374;4.946;2023-06-22T12:55:35;23.50;99.90
25092;DHT22;13082;52.374;4.946;2023-06-22T12:58:00;23.50;99.90
25092;DHT22;13082;52.374;4.946;2023-06-22T13:00:26;23.50;99.90
25092;DHT22;13082;52.374;4.946;2023-06-22T13:02:52;23.50;99.90
25092;DHT22;13082;52.374;4.946;2023-06-22T13:05:18;23.50;99.90
25092;DHT22;13082;52.374;4.946;2023-06-22T13:07:44;23.50;99.90
25092;DHT22;13082;52.374;4.946;2023-06-22T13:10:11;23.60;99.90
25092;DHT22;13082;52.374;4.946;2023-06-22T13:12:36;23.60;99.90
25092;DHT22;13082;52.374;4.946;2023-06-22T13:15:02;23.60;99.90
25092;DHT22;13082;52.374;4.946;2023-06-22T13:17:28;23.60;99.90
25092;DHT22;13082;52.374;4.946;2023-06-22T13:19:54;23.60;99.90
25092;DHT22;13082;52.374;4.946;2023-06-22T13:24:52;23.60;99.90
25092;DHT22;13082;52.374;4.946;2023-06-22T13:27:17;23.60;99.90
25092;DHT22;13082;52.374;4.946;2023-06-22T13:29:43;23.50;99.90
25092;DHT22;13082;52.374;4.946;2023-06-22T13:32:08;23.60;99.90
25092;DHT22;13082;52.374;4.946;2023-06-22T13:34:34;23.50;99.90
25092;DHT22;13082;52.374;4.946;2023-06-22T13:37:00;23.50;99.90
25092;DHT22;13082;52.374;4.946;2023-06-22T13:39:25;23.50;99.90
25092;DHT22;13082;52.374;4.946;2023-06-22T13:41:51;23.50;99.90
25092;DHT22;13082;52.374;4.946;2023-06-22T13:44:16;23.50;99.90
25092;DHT22;13082;52.374;4.946;2023-06-22T13:46:42;23.50;99.90
25092;DHT22;13082;52.374;4.946;2023-06-22T13:49:08;23.50;99.90
25092;DHT22;13082;52.374;4.946;2023-06-22T13:51:33;23.50;99.90
25092;DHT22;13082;52.374;4.946;2023-06-22T13:53:59;23.50;99.90
25092;DHT22;13082;52.374;4.946;2023-06-22T13:56:24;23.50;99.90
25092;DHT22;13082;52.374;4.946;2023-06-22T13:58:50;23.50;99.90
25092;DHT22;13082;52.374;4.946;2023-06-22T14:01:16;23.50;99.90
25092;DHT22;13082;52.374;4.946;2023-06-22T14:03:41;23.50;99.90
25092;DHT22;13082;52.374;4.946;2023-06-22T14:06:07;23.50;99.90
25092;DHT22;13082;52.374;4.946;2023-06-22T14:08:35;23.60;99.90
25092;DHT22;13082;52.374;4.946;2023-06-22T14:11:01;23.60;99.90
25092;DHT22;13082;52.374;4.946;2023-06-22T14:13:27;23.60;99.90
25092;DHT22;13082;52.374;4.946;2023-06-22T14:15:52;23.60;99.90
25092;DHT22;13082;52.374;4.946;2023-06-22T14:18:19;23.60;99.90
25092;DHT22;13082;52.374;4.946;2023-06-22T14:20:48;23.60;99.90
25092;DHT22;13082;52.374;4.946;2023-06-22T14:23:14;23.70;99.90
25092;DHT22;13082;52.374;4.946;2023-06-22T14:25:40;23.70;99.90
25092;DHT22;13082;52.374;4.946;2023-06-22T14:28:05;23.70;99.90
25092;DHT22;13082;52.374;4.946;2023-06-22T14:30:31;23.60;99.90
25092;DHT22;13082;52.374;4.946;2023-06-22T14:32:57;23.60;99.90
25092;DHT22;13082;52.374;4.946;2023-06-22T14:35:23;23.60;99.90
25092;DHT22;13082;52.374;4.946;2023-06-22T14:37:50;23.50;99.90
25092;DHT22;13082;52.374;4.946;2023-06-22T14:40:15;23.60;99.90
25092;DHT22;13082;52.374;4.946;2023-06-22T14:42:41;23.50;99.90
25092;DHT22;13082;52.374;4.946;2023-06-22T14:45:07;23.50;99.90
25092;DHT22;13082;52.374;4.946;2023-06-22T14:47:33;23.50;99.90
25092;DHT22;13082;52.374;4.946;2023-06-22T14:49:58;23.50;99.90
25092;DHT22;13082;52.374;4.946;2023-06-22T14:52:26;23.50;99.90
25092;DHT22;13082;52.374;4.946;2023-06-22T14:54:51;23.50;99.90
25092;DHT22;13082;52.374;4.946;2023-06-22T14:57:18;23.50;99.90
25092;DHT22;13082;52.374;4.946;2023-06-22T14:59:46;23.40;99.90
25092;DHT22;13082;52.374;4.946;2023-06-22T15:02:12;23.40;99.90
25092;DHT22;13082;52.374;4.946;2023-06-22T15:04:37;23.30;99.90
25092;DHT22;13082;52.374;4.946;2023-06-22T15:07:03;23.40;99.90
25092;DHT22;13082;52.374;4.946;2023-06-22T15:09:29;23.40;99.90
25092;DHT22;13082;52.374;4.946;2023-06-22T15:11:54;23.40;99.90
25092;DHT22;13082;52.374;4.946;2023-06-22T15:14:20;23.50;99.90
25092;DHT22;13082;52.374;4.946;2023-06-22T15:16:45;23.50;99.90
25092;DHT22;13082;52.374;4.946;2023-06-22T15:19:11;23.50;99.90
25092;DHT22;13082;52.374;4.946;2023-06-22T15:21:38;23.50;99.90
25092;DHT22;13082;52.374;4.946;2023-06-22T15:24:04;23.50;99.90
25092;DHT22;13082;52.374;4.946;2023-06-22T15:26:29;23.50;99.90
25092;DHT22;13082;52.374;4.946;2023-06-22T15:28:55;23.40;99.90